createdAt,value
2023-05-02T00:00:19.753Z,101221.41
2023-05-02T00:05:21.522Z,101223.94
2023-05-02T00:10:23.217Z,101224.50
2023-05-02T00:15:24.737Z,101219.13
2023-05-02T00:20:26.359Z,101227.75
2023-05-02T00:25:27.878Z,101229.91
2023-05-02T00:30:29.880Z,101227.13
2023-05-02T00:35:33.549Z,101235.78
2023-05-02T00:40:44.957Z,101245.09
2023-05-02T00:45:46.852Z,101253.91
2023-05-02T00:50:48.439Z,101248.03
2023-05-02T00:55:50.168Z,101254.44
2023-05-02T01:01:29.742Z,101260.66
2023-05-02T01:07:08.356Z,101267.69
2023-05-02T01:12:31.282Z,101267.78
2023-05-02T01:17:34.499Z,101273.13
2023-05-02T01:22:38.835Z,101286.84
2023-05-02T01:28:10.409Z,101291.44
2023-05-02T01:33:15.087Z,101291.44
2023-05-02T01:38:19.293Z,101305.31
2023-05-02T01:43:21.817Z,101307.63
2023-05-02T01:48:25.633Z,101313.41
2023-05-02T01:53:30.183Z,101318.19
2023-05-02T01:58:35.593Z,101313.81
2023-05-02T02:03:37.131Z,101318.91
2023-05-02T02:08:38.824Z,101332.41
2023-05-02T02:13:48.073Z,101330.75
2023-05-02T02:18:50.562Z,101339.84
2023-05-02T02:23:55.906Z,101342.84
2023-05-02T02:28:57.604Z,101355.13
2023-05-02T02:33:59.837Z,101350.97
2023-05-02T02:39:16.776Z,101362.41
2023-05-02T02:44:21.249Z,101370.13
2023-05-02T02:49:46.806Z,101376.59
2023-05-02T02:55:23.648Z,101376.75
2023-05-02T03:00:27.687Z,101391.81
2023-05-02T03:05:29.658Z,101391.69
2023-05-02T03:10:31.301Z,101391.97
2023-05-02T03:15:51.884Z,101400.56
2023-05-02T03:20:57.837Z,101402.94
2023-05-02T03:26:00.134Z,101399.03
2023-05-02T03:31:01.770Z,101412.72
2023-05-02T03:36:07.317Z,101406.03
2023-05-02T03:41:09.408Z,101412.47
2023-05-02T03:46:11.345Z,101414.63
2023-05-02T03:51:17.115Z,101424.44
2023-05-02T03:56:22.418Z,101418.09
2023-05-02T04:01:34.742Z,101422.47
2023-05-02T04:06:37.665Z,101418.19
2023-05-02T04:11:42.066Z,101421.00
2023-05-02T04:16:49.704Z,101432.31
2023-05-02T04:21:55.603Z,101425.88
2023-05-02T04:26:57.553Z,101438.97
2023-05-02T04:32:00.108Z,101440.69
2023-05-02T04:37:03.656Z,101460.72
2023-05-02T04:42:07.531Z,101467.69
2023-05-02T04:47:16.583Z,101476.88
2023-05-02T04:52:20.064Z,101485.84
2023-05-02T04:57:23.297Z,101487.72
2023-05-02T05:02:29.678Z,101488.41
2023-05-02T05:07:32.726Z,101497.59
2023-05-02T05:12:34.333Z,101501.56
2023-05-02T05:17:36.064Z,101493.44
2023-05-02T05:22:42.147Z,101506.38
2023-05-02T05:27:45.936Z,101503.84
2023-05-02T05:32:47.915Z,101519.97
2023-05-02T05:37:49.615Z,101526.03
2023-05-02T05:42:52.622Z,101537.88
2023-05-02T05:48:02.421Z,101547.78
2023-05-02T05:53:08.243Z,101555.41
2023-05-02T05:58:12.615Z,101559.00
2023-05-02T06:03:15.771Z,101571.00
2023-05-02T06:08:17.675Z,101570.88
2023-05-02T06:13:19.318Z,101573.00
2023-05-02T06:18:22.187Z,101573.03
2023-05-02T06:23:23.736Z,101589.59
2023-05-02T06:28:25.253Z,101587.13
2023-05-02T06:33:27.938Z,101600.41
2023-05-02T06:38:29.765Z,101611.41
2023-05-02T06:43:31.386Z,101617.91
2023-05-02T06:48:32.937Z,101616.72
2023-05-02T06:53:34.478Z,101627.03
2023-05-02T06:58:36.122Z,101633.63
2023-05-02T07:03:37.661Z,101642.69
2023-05-02T07:08:39.175Z,101651.84
2023-05-02T07:13:40.728Z,101655.22
2023-05-02T07:18:43.330Z,101653.06
2023-05-02T07:23:44.859Z,101669.13
2023-05-02T07:28:46.379Z,101681.25
2023-05-02T07:33:47.904Z,101675.22
2023-05-02T07:38:49.422Z,101681.31
2023-05-02T07:43:50.957Z,101683.16
2023-05-02T07:48:52.557Z,101691.84
2023-05-02T07:53:54.239Z,101700.59
2023-05-02T07:58:55.957Z,101703.81
2023-05-02T08:03:57.607Z,101703.03
2023-05-02T08:08:59.799Z,101710.38
2023-05-02T08:14:01.567Z,101713.97
2023-05-02T08:19:03.143Z,101728.59
2023-05-02T08:24:04.798Z,101730.75
2023-05-02T08:29:06.306Z,101738.34
2023-05-02T08:34:07.861Z,101749.50
2023-05-02T08:39:09.497Z,101754.81
2023-05-02T08:44:12.044Z,101753.09
2023-05-02T08:49:15.717Z,101760.72
2023-05-02T08:54:18.901Z,101755.97
2023-05-02T08:59:20.699Z,101762.91
2023-05-02T09:04:24.529Z,101770.84
2023-05-02T09:09:26.874Z,101785.09
2023-05-02T09:14:28.448Z,101782.53
2023-05-02T09:19:29.986Z,101782.78
2023-05-02T09:24:31.535Z,101791.94
2023-05-02T09:29:34.238Z,101797.16
2023-05-02T09:34:35.872Z,101809.47
2023-05-02T09:39:37.414Z,101820.88
2023-05-02T09:44:38.930Z,101822.13
2023-05-02T09:49:45.712Z,101832.34
2023-05-02T09:54:47.950Z,101824.13
2023-05-02T09:59:56.720Z,101846.72
2023-05-02T10:05:00.458Z,101852.84
2023-05-02T10:10:03.319Z,101850.22
2023-05-02T10:15:07.985Z,101865.72
2023-05-02T10:20:13.947Z,101856.16
2023-05-02T10:25:15.696Z,101868.44
2023-05-02T10:30:17.408Z,101857.53
2023-05-02T10:35:19.742Z,101868.91
2023-05-02T10:40:21.378Z,101872.34
2023-05-02T10:45:36.663Z,101877.72
2023-05-02T10:50:45.481Z,101876.72
2023-05-02T10:56:10.018Z,101871.59
2023-05-02T11:01:29.657Z,101880.72
2023-05-02T11:06:36.414Z,101873.50
2023-05-02T11:11:38.849Z,101870.84
2023-05-02T11:16:59.134Z,101880.41
2023-05-02T11:22:19.274Z,101882.25
2023-05-02T11:27:29.918Z,101884.69
2023-05-02T11:32:54.613Z,101886.75
2023-05-02T11:38:00.148Z,101879.69
2023-05-02T11:43:13.105Z,101889.97
2023-05-02T11:48:18.022Z,101895.09
2023-05-02T11:53:21.914Z,101893.56
2023-05-02T11:58:26.043Z,101893.22
2023-05-02T12:03:33.206Z,101885.22
2023-05-02T12:08:34.936Z,101894.56
2023-05-02T12:13:45.525Z,101902.69
2023-05-02T12:18:48.079Z,101903.78
2023-05-02T12:23:49.841Z,101915.28
2023-05-02T12:28:52.509Z,101913.81
2023-05-02T12:33:54.140Z,101913.59
2023-05-02T12:38:57.411Z,101919.66
2023-05-02T12:43:59.014Z,101910.66
2023-05-02T12:49:07.868Z,101917.50
2023-05-02T12:54:20.664Z,101922.28
2023-05-02T12:59:29.999Z,101929.38
2023-05-02T13:04:38.981Z,101933.56
2023-05-02T13:09:40.649Z,101939.97
2023-05-02T13:14:42.325Z,101939.97
2023-05-02T13:19:50.579Z,101937.53
2023-05-02T13:24:55.741Z,101940.75
2023-05-02T13:29:57.325Z,101942.88
2023-05-02T13:34:58.855Z,101935.50
2023-05-02T13:40:00.814Z,101941.38
2023-05-02T13:45:02.621Z,101947.06
2023-05-02T13:50:04.753Z,101956.31
2023-05-02T13:55:06.825Z,101949.34
2023-05-02T14:00:09.133Z,101950.22
2023-05-02T14:05:10.621Z,101950.00
2023-05-02T14:10:12.327Z,101953.41
2023-05-02T14:15:14.066Z,101954.09
2023-05-02T14:20:15.643Z,101964.28
2023-05-02T14:25:17.198Z,101957.34
2023-05-02T14:30:18.830Z,101959.41
2023-05-02T14:35:20.523Z,101960.28
2023-05-02T14:40:22.073Z,101970.84
2023-05-02T14:45:23.624Z,101971.03
2023-05-02T14:50:25.343Z,101954.00
2023-05-02T14:55:26.956Z,101948.84
2023-05-02T15:00:28.571Z,101945.22
2023-05-02T15:05:31.456Z,101941.78
2023-05-02T15:10:37.133Z,101952.44
2023-05-02T15:15:38.759Z,101948.56
2023-05-02T15:20:40.272Z,101947.94
2023-05-02T15:25:41.810Z,101948.44
2023-05-02T15:30:43.362Z,101954.69
2023-05-02T15:35:56.302Z,101961.00
2023-05-02T15:40:59.556Z,101964.91
2023-05-02T15:46:01.651Z,101957.84
2023-05-02T15:51:03.913Z,101967.97
2023-05-02T15:56:09.165Z,101964.22
2023-05-02T16:01:10.845Z,101967.56
2023-05-02T16:06:12.598Z,101958.97
2023-05-02T16:11:14.136Z,101974.84
2023-05-02T16:16:17.883Z,101966.53
2023-05-02T16:21:19.529Z,101971.84
2023-05-02T16:26:21.116Z,101976.28
2023-05-02T16:31:22.744Z,101966.22
2023-05-02T16:36:24.681Z,101967.13
2023-05-02T16:41:26.347Z,101957.31
2023-05-02T16:46:28.003Z,101963.56
2023-05-02T16:51:29.609Z,101968.94
2023-05-02T16:56:31.135Z,101954.09
2023-05-02T17:01:34.965Z,101961.03
2023-05-02T17:06:36.539Z,101972.31
2023-05-02T17:11:38.104Z,101975.44
2023-05-02T17:16:40.347Z,101972.56
2023-05-02T17:21:41.937Z,101971.13
2023-05-02T17:26:43.555Z,101975.84
2023-05-02T17:31:45.271Z,101970.78
2023-05-02T17:36:46.831Z,101969.00
2023-05-02T17:41:48.445Z,101970.03
2023-05-02T17:46:50.002Z,101977.16
2023-05-02T17:51:51.568Z,101977.16
2023-05-02T17:56:53.316Z,101980.41
2023-05-02T18:01:54.902Z,101982.16
2023-05-02T18:06:56.671Z,101981.13
2023-05-02T18:11:58.290Z,101983.78
2023-05-02T18:16:59.847Z,101978.28
2023-05-02T18:22:01.469Z,101981.78
2023-05-02T18:27:03.179Z,101986.13
2023-05-02T18:32:04.869Z,101979.78
2023-05-02T18:37:06.558Z,101984.94
2023-05-02T18:42:08.169Z,101985.97
2023-05-02T18:47:09.748Z,101992.38
2023-05-02T18:52:11.440Z,101986.81
2023-05-02T18:57:12.999Z,101992.53
2023-05-02T19:02:15.205Z,101991.03
2023-05-02T19:07:16.779Z,101997.19
2023-05-02T19:12:18.298Z,102011.75
2023-05-02T19:17:19.839Z,102006.13
2023-05-02T19:22:21.431Z,102020.78
2023-05-02T19:27:22.988Z,102032.38
2023-05-02T19:32:24.631Z,102038.59
2023-05-02T19:37:26.321Z,102046.56
2023-05-02T19:42:27.883Z,102052.06
2023-05-02T19:47:29.525Z,102049.84
2023-05-02T19:52:31.123Z,102064.38
2023-05-02T19:57:32.677Z,102065.47
2023-05-02T20:02:34.308Z,102065.25
2023-05-02T20:07:35.988Z,102061.09
2023-05-02T20:12:37.709Z,102077.06
2023-05-02T20:17:39.296Z,102088.81
2023-05-02T20:22:40.833Z,102088.19
2023-05-02T20:27:42.731Z,102092.91
2023-05-02T20:32:44.468Z,102094.56
2023-05-02T20:37:46.178Z,102096.06
2023-05-02T20:42:47.994Z,102100.47
2023-05-02T20:47:50.037Z,102103.31
2023-05-02T20:52:51.666Z,102102.94
2023-05-02T20:57:53.790Z,102105.03
2023-05-02T21:02:55.511Z,102109.81
2023-05-02T21:07:57.097Z,102101.22
2023-05-02T21:12:58.680Z,102102.81
2023-05-02T21:18:01.590Z,102104.03
2023-05-02T21:23:03.241Z,102102.94
2023-05-02T21:28:05.331Z,102104.84
2023-05-02T21:33:06.871Z,102105.94
2023-05-02T21:38:08.467Z,102106.31
2023-05-02T21:43:10.028Z,102116.97
2023-05-02T21:48:13.149Z,102110.44
2023-05-02T21:53:14.766Z,102122.06
2023-05-02T21:58:16.341Z,102118.81
2023-05-02T22:03:18.010Z,102117.22
2023-05-02T22:08:19.534Z,102121.44
2023-05-02T22:13:21.108Z,102125.47
2023-05-02T22:18:22.668Z,102134.69
2023-05-02T22:23:24.222Z,102133.47
2023-05-02T22:28:25.806Z,102135.31
2023-05-02T22:33:27.416Z,102136.66
2023-05-02T22:38:28.994Z,102136.81
2023-05-02T22:43:30.719Z,102147.88
2023-05-02T22:48:32.298Z,102144.25
2023-05-02T22:53:33.866Z,102155.00
2023-05-02T22:58:35.477Z,102150.88
2023-05-02T23:03:37.172Z,102157.47
2023-05-02T23:08:38.763Z,102147.69
2023-05-02T23:13:40.293Z,102143.75
2023-05-02T23:18:41.829Z,102132.97
2023-05-02T23:23:43.593Z,102125.44
2023-05-02T23:28:45.134Z,102131.50
2023-05-02T23:33:46.764Z,102128.91
2023-05-02T23:38:48.397Z,102126.66
2023-05-02T23:43:49.940Z,102123.59
2023-05-02T23:48:51.521Z,102130.44
2023-05-02T23:53:53.146Z,102131.28
2023-05-02T23:58:55.238Z,102120.63
